sensor_id;sensor_type;location;lat;lon;timestamp;P1;durP1;ratioP1;P2;durP2;ratioP2
15555;SDS011;7879;48.660;9.116;2023-06-01T00:02:26;0.10;;;0.10;;
15555;SDS011;7879;48.660;9.116;2023-06-01T00:04:54;0.10;;;0.10;;
15555;SDS011;7879;48.660;9.116;2023-06-01T00:07:21;0.20;;;0.20;;
15555;SDS011;7879;48.660;9.116;2023-06-01T00:09:50;0.10;;;0.10;;
15555;SDS011;7879;48.660;9.116;2023-06-01T00:12:17;0.10;;;0.10;;
15555;SDS011;7879;48.660;9.116;2023-06-01T00:14:44;0.20;;;0.20;;
15555;SDS011;7879;48.660;9.116;2023-06-01T00:17:11;0.10;;;0.10;;
15555;SDS011;7879;48.660;9.116;2023-06-01T00:19:38;0.10;;;0.10;;
15555;SDS011;7879;48.660;9.116;2023-06-01T00:22:05;0.20;;;0.20;;
15555;SDS011;7879;48.660;9.116;2023-06-01T00:24:34;0.10;;;0.10;;
15555;SDS011;7879;48.660;9.116;2023-06-01T00:27:00;0.10;;;0.10;;
15555;SDS011;7879;48.660;9.116;2023-06-01T00:29:28;0.20;;;0.20;;
15555;SDS011;7879;48.660;9.116;2023-06-01T00:31:56;0.10;;;0.10;;
15555;SDS011;7879;48.660;9.116;2023-06-01T00:34:23;0.10;;;0.10;;
15555;SDS011;7879;48.660;9.116;2023-06-01T00:36:50;0.13;;;0.13;;
15555;SDS011;7879;48.660;9.116;2023-06-01T00:39:16;0.10;;;0.10;;
15555;SDS011;7879;48.660;9.116;2023-06-01T00:41:43;0.20;;;0.20;;
15555;SDS011;7879;48.660;9.116;2023-06-01T00:44:10;0.10;;;0.10;;
15555;SDS011;7879;48.660;9.116;2023-06-01T00:46:37;0.10;;;0.10;;
15555;SDS011;7879;48.660;9.116;2023-06-01T00:49:04;0.20;;;0.20;;
15555;SDS011;7879;48.660;9.116;2023-06-01T00:51:31;0.10;;;0.10;;
15555;SDS011;7879;48.660;9.116;2023-06-01T00:53:59;0.10;;;0.10;;
15555;SDS011;7879;48.660;9.116;2023-06-01T00:56:26;0.10;;;0.10;;
15555;SDS011;7879;48.660;9.116;2023-06-01T00:58:53;0.10;;;0.10;;
15555;SDS011;7879;48.660;9.116;2023-06-01T01:01:20;0.20;;;0.20;;
15555;SDS011;7879;48.660;9.116;2023-06-01T01:03:49;0.10;;;0.10;;
15555;SDS011;7879;48.660;9.116;2023-06-01T01:08:57;0.20;;;0.20;;
15555;SDS011;7879;48.660;9.116;2023-06-01T01:11:41;0.10;;;0.10;;
15555;SDS011;7879;48.660;9.116;2023-06-01T01:14:21;0.10;;;0.10;;
15555;SDS011;7879;48.660;9.116;2023-06-01T01:16:54;0.20;;;0.20;;
15555;SDS011;7879;48.660;9.116;2023-06-01T01:28:26;0.10;;;0.10;;
15555;SDS011;7879;48.660;9.116;2023-06-01T01:31:07;0.13;;;0.13;;
15555;SDS011;7879;48.660;9.116;2023-06-01T01:33:46;0.20;;;0.20;;
15555;SDS011;7879;48.660;9.116;2023-06-01T01:36:15;0.10;;;0.10;;
15555;SDS011;7879;48.660;9.116;2023-06-01T01:38:42;0.20;;;0.20;;
15555;SDS011;7879;48.660;9.116;2023-06-01T01:41:09;0.10;;;0.10;;
15555;SDS011;7879;48.660;9.116;2023-06-01T01:43:37;0.15;;;0.15;;
15555;SDS011;7879;48.660;9.116;2023-06-01T01:46:14;0.20;;;0.20;;
15555;SDS011;7879;48.660;9.116;2023-06-01T01:49:00;0.10;;;0.10;;
15555;SDS011;7879;48.660;9.116;2023-06-01T01:51:35;0.15;;;0.15;;
15555;SDS011;7879;48.660;9.116;2023-06-01T01:54:04;0.10;;;0.10;;
15555;SDS011;7879;48.660;9.116;2023-06-01T01:56:34;0.10;;;0.10;;
15555;SDS011;7879;48.660;9.116;2023-06-01T01:59:02;0.20;;;0.20;;
15555;SDS011;7879;48.660;9.116;2023-06-01T02:01:31;0.10;;;0.10;;
15555;SDS011;7879;48.660;9.116;2023-06-01T02:04:02;0.20;;;0.20;;
15555;SDS011;7879;48.660;9.116;2023-06-01T02:06:30;0.10;;;0.10;;
15555;SDS011;7879;48.660;9.116;2023-06-01T02:08:59;0.20;;;0.20;;
15555;SDS011;7879;48.660;9.116;2023-06-01T02:11:26;0.10;;;0.10;;
15555;SDS011;7879;48.660;9.116;2023-06-01T02:13:52;0.20;;;0.20;;
15555;SDS011;7879;48.660;9.116;2023-06-01T02:16:19;0.10;;;0.10;;
15555;SDS011;7879;48.660;9.116;2023-06-01T02:18:48;0.20;;;0.20;;
15555;SDS011;7879;48.660;9.116;2023-06-01T02:21:15;0.10;;;0.10;;
15555;SDS011;7879;48.660;9.116;2023-06-01T02:23:42;0.17;;;0.17;;
15555;SDS011;7879;48.660;9.116;2023-06-01T02:26:09;0.10;;;0.10;;
15555;SDS011;7879;48.660;9.116;2023-06-01T02:28:37;0.10;;;0.10;;
15555;SDS011;7879;48.660;9.116;2023-06-01T02:31:05;0.20;;;0.20;;
15555;SDS011;7879;48.660;9.116;2023-06-01T02:33:32;0.20;;;0.20;;
15555;SDS011;7879;48.660;9.116;2023-06-01T02:35:59;0.20;;;0.20;;
15555;SDS011;7879;48.660;9.116;2023-06-01T02:38:26;0.10;;;0.10;;
15555;SDS011;7879;48.660;9.116;2023-06-01T02:40:53;0.20;;;0.20;;
15555;SDS011;7879;48.660;9.116;2023-06-01T02:43:20;0.10;;;0.10;;
15555;SDS011;7879;48.660;9.116;2023-06-01T02:45:47;0.20;;;0.20;;
15555;SDS011;7879;48.660;9.116;2023-06-01T02:48:14;0.10;;;0.10;;
15555;SDS011;7879;48.660;9.116;2023-06-01T02:50:41;0.20;;;0.20;;
15555;SDS011;7879;48.660;9.116;2023-06-01T02:53:08;0.10;;;0.10;;
15555;SDS011;7879;48.660;9.116;2023-06-01T02:55:35;0.20;;;0.20;;
15555;SDS011;7879;48.660;9.116;2023-06-01T02:58:02;0.10;;;0.10;;
15555;SDS011;7879;48.660;9.116;2023-06-01T03:00:29;0.20;;;0.20;;
15555;SDS011;7879;48.660;9.116;2023-06-01T03:02:56;0.10;;;0.10;;
15555;SDS011;7879;48.660;9.116;2023-06-01T03:05:23;0.20;;;0.20;;
15555;SDS011;7879;48.660;9.116;2023-06-01T03:07:50;0.10;;;0.10;;
15555;SDS011;7879;48.660;9.116;2023-06-01T03:10:16;0.20;;;0.20;;
15555;SDS011;7879;48.660;9.116;2023-06-01T03:12:43;0.10;;;0.10;;
15555;SDS011;7879;48.660;9.116;2023-06-01T03:15:10;0.22;;;0.22;;
15555;SDS011;7879;48.660;9.116;2023-06-01T03:17:37;0.10;;;0.10;;
15555;SDS011;7879;48.660;9.116;2023-06-01T03:20:04;0.20;;;0.20;;
15555;SDS011;7879;48.660;9.116;2023-06-01T03:22:43;0.10;;;0.10;;
15555;SDS011;7879;48.660;9.116;2023-06-01T03:25:10;0.20;;;0.20;;
15555;SDS011;7879;48.660;9.116;2023-06-01T03:27:39;0.10;;;0.10;;
15555;SDS011;7879;48.660;9.116;2023-06-01T03:30:07;0.20;;;0.20;;
15555;SDS011;7879;48.660;9.116;2023-06-01T03:32:40;0.10;;;0.10;;
15555;SDS011;7879;48.660;9.116;2023-06-01T03:35:09;0.20;;;0.20;;
15555;SDS011;7879;48.660;9.116;2023-06-01T03:37:39;0.10;;;0.10;;
15555;SDS011;7879;48.660;9.116;2023-06-01T03:40:08;0.20;;;0.20;;
15555;SDS011;7879;48.660;9.116;2023-06-01T03:42:41;0.10;;;0.10;;
15555;SDS011;7879;48.660;9.116;2023-06-01T03:45:10;0.20;;;0.20;;
15555;SDS011;7879;48.660;9.116;2023-06-01T03:47:38;0.10;;;0.10;;
15555;SDS011;7879;48.660;9.116;2023-06-01T03:50:06;0.20;;;0.20;;
15555;SDS011;7879;48.660;9.116;2023-06-01T03:52:35;0.10;;;0.10;;
15555;SDS011;7879;48.660;9.116;2023-06-01T03:55:02;0.20;;;0.20;;
15555;SDS011;7879;48.660;9.116;2023-06-01T03:57:37;0.10;;;0.10;;
15555;SDS011;7879;48.660;9.116;2023-06-01T04:00:04;0.20;;;0.20;;
15555;SDS011;7879;48.660;9.116;2023-06-01T04:02:45;0.10;;;0.10;;
15555;SDS011;7879;48.660;9.116;2023-06-01T04:05:15;0.20;;;0.20;;
15555;SDS011;7879;48.660;9.116;2023-06-01T04:07:47;0.10;;;0.10;;
15555;SDS011;7879;48.660;9.116;2023-06-01T04:10:14;0.20;;;0.20;;
15555;SDS011;7879;48.660;9.116;2023-06-01T04:12:43;0.10;;;0.10;;
15555;SDS011;7879;48.660;9.116;2023-06-01T04:15:11;0.20;;;0.20;;
15555;SDS011;7879;48.660;9.116;2023-06-01T04:17:40;0.10;;;0.10;;
15555;SDS011;7879;48.660;9.116;2023-06-01T04:20:14;0.20;;;0.20;;
15555;SDS011;7879;48.660;9.116;2023-06-01T04:22:43;0.20;;;0.20;;
15555;SDS011;7879;48.660;9.116;2023-06-01T04:25:12;0.10;;;0.10;;
15555;SDS011;7879;48.660;9.116;2023-06-01T04:27:44;0.20;;;0.20;;
15555;SDS011;7879;48.660;9.116;2023-06-01T04:30:13;0.10;;;0.10;;
15555;SDS011;7879;48.660;9.116;2023-06-01T04:32:42;0.20;;;0.20;;
15555;SDS011;7879;48.660;9.116;2023-06-01T04:35:15;0.20;;;0.20;;
15555;SDS011;7879;48.660;9.116;2023-06-01T04:37:42;0.10;;;0.10;;
15555;SDS011;7879;48.660;9.116;2023-06-01T04:40:09;0.10;;;0.10;;
15555;SDS011;7879;48.660;9.116;2023-06-01T04:42:41;0.17;;;0.17;;
15555;SDS011;7879;48.660;9.116;2023-06-01T04:45:11;0.10;;;0.10;;
15555;SDS011;7879;48.660;9.116;2023-06-01T04:47:40;0.10;;;0.10;;
15555;SDS011;7879;48.660;9.116;2023-06-01T04:50:07;0.20;;;0.20;;
15555;SDS011;7879;48.660;9.116;2023-06-01T04:52:39;0.10;;;0.10;;
15555;SDS011;7879;48.660;9.116;2023-06-01T04:55:07;0.10;;;0.10;;
15555;SDS011;7879;48.660;9.116;2023-06-01T04:57:35;0.10;;;0.10;;
15555;SDS011;7879;48.660;9.116;2023-06-01T05:00:05;0.10;;;0.10;;
15555;SDS011;7879;48.660;9.116;2023-06-01T05:02:38;0.10;;;0.10;;
15555;SDS011;7879;48.660;9.116;2023-06-01T05:05:06;0.10;;;0.10;;
15555;SDS011;7879;48.660;9.116;2023-06-01T05:07:34;0.10;;;0.10;;
15555;SDS011;7879;48.660;9.116;2023-06-01T05:10:05;0.10;;;0.10;;
15555;SDS011;7879;48.660;9.116;2023-06-01T05:12:34;0.15;;;0.15;;
15555;SDS011;7879;48.660;9.116;2023-06-01T05:15:05;0.10;;;0.10;;
15555;SDS011;7879;48.660;9.116;2023-06-01T05:17:33;0.17;;;0.17;;
15555;SDS011;7879;48.660;9.116;2023-06-01T05:20:01;0.10;;;0.10;;
15555;SDS011;7879;48.660;9.116;2023-06-01T05:22:27;0.10;;;0.10;;
15555;SDS011;7879;48.660;9.116;2023-06-01T05:24:54;0.10;;;0.10;;
15555;SDS011;7879;48.660;9.116;2023-06-01T05:27:21;0.10;;;0.10;;
15555;SDS011;7879;48.660;9.116;2023-06-01T05:29:48;0.10;;;0.10;;
15555;SDS011;7879;48.660;9.116;2023-06-01T05:32:15;0.10;;;0.10;;
15555;SDS011;7879;48.660;9.116;2023-06-01T05:34:42;0.10;;;0.10;;
15555;SDS011;7879;48.660;9.116;2023-06-01T05:37:09;0.10;;;0.10;;
15555;SDS011;7879;48.660;9.116;2023-06-01T05:39:36;0.10;;;0.10;;
15555;SDS011;7879;48.660;9.116;2023-06-01T05:42:03;0.10;;;0.10;;
15555;SDS011;7879;48.660;9.116;2023-06-01T05:44:31;0.10;;;0.10;;
15555;SDS011;7879;48.660;9.116;2023-06-01T05:46:58;0.10;;;0.10;;
15555;SDS011;7879;48.660;9.116;2023-06-01T05:49:24;0.07;;;0.07;;
15555;SDS011;7879;48.660;9.116;2023-06-01T05:51:51;0.10;;;0.10;;
15555;SDS011;7879;48.660;9.116;2023-06-01T05:54:18;0.10;;;0.10;;
15555;SDS011;7879;48.660;9.116;2023-06-01T05:56:45;0.10;;;0.10;;
15555;SDS011;7879;48.660;9.116;2023-06-01T05:59:12;0.10;;;0.10;;
15555;SDS011;7879;48.660;9.116;2023-06-01T06:01:39;0.10;;;0.10;;
15555;SDS011;7879;48.660;9.116;2023-06-01T06:04:06;0.10;;;0.10;;
15555;SDS011;7879;48.660;9.116;2023-06-01T06:06:34;0.10;;;0.10;;
15555;SDS011;7879;48.660;9.116;2023-06-01T06:09:02;0.10;;;0.10;;
15555;SDS011;7879;48.660;9.116;2023-06-01T06:11:30;0.10;;;0.10;;
15555;SDS011;7879;48.660;9.116;2023-06-01T06:13:58;0.10;;;0.10;;
15555;SDS011;7879;48.660;9.116;2023-06-01T06:16:24;0.10;;;0.10;;
15555;SDS011;7879;48.660;9.116;2023-06-01T06:18:51;0.10;;;0.10;;
15555;SDS011;7879;48.660;9.116;2023-06-01T06:21:18;0.00;;;0.00;;
15555;SDS011;7879;48.660;9.116;2023-06-01T06:23:45;0.10;;;0.10;;
15555;SDS011;7879;48.660;9.116;2023-06-01T06:26:12;0.10;;;0.10;;
15555;SDS011;7879;48.660;9.116;2023-06-01T06:28:39;0.10;;;0.10;;
15555;SDS011;7879;48.660;9.116;2023-06-01T06:31:06;0.10;;;0.10;;
15555;SDS011;7879;48.660;9.116;2023-06-01T06:33:32;0.00;;;0.00;;
15555;SDS011;7879;48.660;9.116;2023-06-01T06:35:59;0.00;;;0.00;;
15555;SDS011;7879;48.660;9.116;2023-06-01T06:38:26;0.00;;;0.00;;
15555;SDS011;7879;48.660;9.116;2023-06-01T06:40:53;0.05;;;0.05;;
15555;SDS011;7879;48.660;9.116;2023-06-01T06:43:19;0.10;;;0.10;;
15555;SDS011;7879;48.660;9.116;2023-06-01T06:45:46;0.10;;;0.10;;
15555;SDS011;7879;48.660;9.116;2023-06-01T06:48:13;0.05;;;0.05;;
15555;SDS011;7879;48.660;9.116;2023-06-01T06:50:40;0.00;;;0.00;;
15555;SDS011;7879;48.660;9.116;2023-06-01T06:53:10;0.00;;;0.00;;
15555;SDS011;7879;48.660;9.116;2023-06-01T06:55:37;0.00;;;0.00;;
15555;SDS011;7879;48.660;9.116;2023-06-01T06:58:04;0.00;;;0.00;;
15555;SDS011;7879;48.660;9.116;2023-06-01T07:00:31;0.00;;;0.00;;
15555;SDS011;7879;48.660;9.116;2023-06-01T07:02:58;0.00;;;0.00;;
15555;SDS011;7879;48.660;9.116;2023-06-01T07:05:26;0.00;;;0.00;;
15555;SDS011;7879;48.660;9.116;2023-06-01T07:07:53;0.00;;;0.00;;
15555;SDS011;7879;48.660;9.116;2023-06-01T07:10:23;0.00;;;0.00;;
15555;SDS011;7879;48.660;9.116;2023-06-01T07:12:51;0.00;;;0.00;;
15555;SDS011;7879;48.660;9.116;2023-06-01T07:15:18;0.00;;;0.00;;
15555;SDS011;7879;48.660;9.116;2023-06-01T07:17:45;0.00;;;0.00;;
15555;SDS011;7879;48.660;9.116;2023-06-01T07:20:12;0.00;;;0.00;;
15555;SDS011;7879;48.660;9.116;2023-06-01T07:22:39;0.00;;;0.00;;
15555;SDS011;7879;48.660;9.116;2023-06-01T07:25:06;0.00;;;0.00;;
15555;SDS011;7879;48.660;9.116;2023-06-01T07:27:33;0.00;;;0.00;;
15555;SDS011;7879;48.660;9.116;2023-06-01T07:30:03;0.00;;;0.00;;
15555;SDS011;7879;48.660;9.116;2023-06-01T07:32:30;0.00;;;0.00;;
15555;SDS011;7879;48.660;9.116;2023-06-01T07:34:57;0.00;;;0.00;;
15555;SDS011;7879;48.660;9.116;2023-06-01T07:37:25;0.00;;;0.00;;
15555;SDS011;7879;48.660;9.116;2023-06-01T07:39:53;0.00;;;0.00;;
15555;SDS011;7879;48.660;9.116;2023-06-01T07:42:20;0.00;;;0.00;;
15555;SDS011;7879;48.660;9.116;2023-06-01T07:44:47;0.00;;;0.00;;
15555;SDS011;7879;48.660;9.116;2023-06-01T07:47:14;0.00;;;0.00;;
15555;SDS011;7879;48.660;9.116;2023-06-01T07:49:41;0.00;;;0.00;;
15555;SDS011;7879;48.660;9.116;2023-06-01T07:52:08;0.00;;;0.00;;
15555;SDS011;7879;48.660;9.116;2023-06-01T07:54:35;0.00;;;0.00;;
15555;SDS011;7879;48.660;9.116;2023-06-01T07:57:05;0.00;;;0.00;;
15555;SDS011;7879;48.660;9.116;2023-06-01T07:59:32;0.00;;;0.00;;
15555;SDS011;7879;48.660;9.116;2023-06-01T08:01:59;0.00;;;0.00;;
15555;SDS011;7879;48.660;9.116;2023-06-01T08:04:27;0.00;;;0.00;;
15555;SDS011;7879;48.660;9.116;2023-06-01T08:07:00;0.00;;;0.00;;
15555;SDS011;7879;48.660;9.116;2023-06-01T08:09:30;0.00;;;0.00;;
15555;SDS011;7879;48.660;9.116;2023-06-01T08:11:57;0.00;;;0.00;;
15555;SDS011;7879;48.660;9.116;2023-06-01T08:14:24;0.00;;;0.00;;
15555;SDS011;7879;48.660;9.116;2023-06-01T08:16:51;0.00;;;0.00;;
15555;SDS011;7879;48.660;9.116;2023-06-01T08:19:18;0.00;;;0.00;;
15555;SDS011;7879;48.660;9.116;2023-06-01T08:21:45;0.00;;;0.00;;
15555;SDS011;7879;48.660;9.116;2023-06-01T08:24:12;0.00;;;0.00;;
15555;SDS011;7879;48.660;9.116;2023-06-01T08:26:39;0.00;;;0.00;;
15555;SDS011;7879;48.660;9.116;2023-06-01T08:29:07;0.00;;;0.00;;
15555;SDS011;7879;48.660;9.116;2023-06-01T08:31:34;0.00;;;0.00;;
15555;SDS011;7879;48.660;9.116;2023-06-01T08:34:03;0.00;;;0.00;;
15555;SDS011;7879;48.660;9.116;2023-06-01T08:36:30;0.00;;;0.00;;
15555;SDS011;7879;48.660;9.116;2023-06-01T08:38:57;0.00;;;0.00;;
15555;SDS011;7879;48.660;9.116;2023-06-01T08:41:26;0.00;;;0.00;;
15555;SDS011;7879;48.660;9.116;2023-06-01T08:44:10;0.00;;;0.00;;
15555;SDS011;7879;48.660;9.116;2023-06-01T08:46:40;0.00;;;0.00;;
15555;SDS011;7879;48.660;9.116;2023-06-01T08:49:08;0.00;;;0.00;;
15555;SDS011;7879;48.660;9.116;2023-06-01T08:51:38;0.00;;;0.00;;
15555;SDS011;7879;48.660;9.116;2023-06-01T08:54:06;0.00;;;0.00;;
15555;SDS011;7879;48.660;9.116;2023-06-01T08:56:35;0.00;;;0.00;;
15555;SDS011;7879;48.660;9.116;2023-06-01T08:59:09;0.00;;;0.00;;
15555;SDS011;7879;48.660;9.116;2023-06-01T09:01:37;0.00;;;0.00;;
15555;SDS011;7879;48.660;9.116;2023-06-01T09:04:05;0.00;;;0.00;;
15555;SDS011;7879;48.660;9.116;2023-06-01T09:06:32;0.00;;;0.00;;
15555;SDS011;7879;48.660;9.116;2023-06-01T09:08:59;0.00;;;0.00;;
15555;SDS011;7879;48.660;9.116;2023-06-01T09:11:26;0.00;;;0.00;;
15555;SDS011;7879;48.660;9.116;2023-06-01T09:13:53;0.00;;;0.00;;
15555;SDS011;7879;48.660;9.116;2023-06-01T09:16:20;0.00;;;0.00;;
15555;SDS011;7879;48.660;9.116;2023-06-01T09:18:50;0.00;;;0.00;;
15555;SDS011;7879;48.660;9.116;2023-06-01T09:21:21;0.00;;;0.00;;
15555;SDS011;7879;48.660;9.116;2023-06-01T09:23:48;0.00;;;0.00;;
15555;SDS011;7879;48.660;9.116;2023-06-01T09:26:15;0.00;;;0.00;;
15555;SDS011;7879;48.660;9.116;2023-06-01T09:34:14;0.00;;;0.00;;
15555;SDS011;7879;48.660;9.116;2023-06-01T09:36:45;0.00;;;0.00;;
15555;SDS011;7879;48.660;9.116;2023-06-01T09:39:13;0.00;;;0.00;;
15555;SDS011;7879;48.660;9.116;2023-06-01T09:41:44;0.00;;;0.00;;
15555;SDS011;7879;48.660;9.116;2023-06-01T09:47:12;0.00;;;0.00;;
15555;SDS011;7879;48.660;9.116;2023-06-01T09:49:40;0.00;;;0.00;;
15555;SDS011;7879;48.660;9.116;2023-06-01T09:52:09;0.00;;;0.00;;
15555;SDS011;7879;48.660;9.116;2023-06-01T09:54:41;0.00;;;0.00;;
15555;SDS011;7879;48.660;9.116;2023-06-01T09:57:11;0.00;;;0.00;;
15555;SDS011;7879;48.660;9.116;2023-06-01T09:59:42;0.00;;;0.00;;
15555;SDS011;7879;48.660;9.116;2023-06-01T10:02:14;0.00;;;0.00;;
15555;SDS011;7879;48.660;9.116;2023-06-01T10:07:29;0.00;;;0.00;;
15555;SDS011;7879;48.660;9.116;2023-06-01T10:09:58;0.00;;;0.00;;
15555;SDS011;7879;48.660;9.116;2023-06-01T10:12:28;0.00;;;0.00;;
15555;SDS011;7879;48.660;9.116;2023-06-01T10:14:58;0.00;;;0.00;;
15555;SDS011;7879;48.660;9.116;2023-06-01T10:17:27;0.00;;;0.00;;
15555;SDS011;7879;48.660;9.116;2023-06-01T10:19:56;0.00;;;0.00;;
15555;SDS011;7879;48.660;9.116;2023-06-01T10:22:24;0.00;;;0.00;;
15555;SDS011;7879;48.660;9.116;2023-06-01T10:24:54;0.00;;;0.00;;
15555;SDS011;7879;48.660;9.116;2023-06-01T10:27:29;0.00;;;0.00;;
15555;SDS011;7879;48.660;9.116;2023-06-01T10:30:04;0.00;;;0.00;;
15555;SDS011;7879;48.660;9.116;2023-06-01T10:35:04;0.00;;;0.00;;
15555;SDS011;7879;48.660;9.116;2023-06-01T10:37:32;0.00;;;0.00;;
15555;SDS011;7879;48.660;9.116;2023-06-01T10:40:19;0.00;;;0.00;;
15555;SDS011;7879;48.660;9.116;2023-06-01T10:42:47;0.00;;;0.00;;
15555;SDS011;7879;48.660;9.116;2023-06-01T10:48:00;0.00;;;0.00;;
15555;SDS011;7879;48.660;9.116;2023-06-01T10:50:28;0.00;;;0.00;;
15555;SDS011;7879;48.660;9.116;2023-06-01T10:52:55;0.00;;;0.00;;
15555;SDS011;7879;48.660;9.116;2023-06-01T10:55:23;0.00;;;0.00;;
15555;SDS011;7879;48.660;9.116;2023-06-01T10:58:18;0.00;;;0.00;;
15555;SDS011;7879;48.660;9.116;2023-06-01T11:00:46;0.00;;;0.00;;
15555;SDS011;7879;48.660;9.116;2023-06-01T11:03:14;0.00;;;0.00;;
15555;SDS011;7879;48.660;9.116;2023-06-01T11:23:51;0.00;;;0.00;;
15555;SDS011;7879;48.660;9.116;2023-06-01T11:26:21;0.00;;;0.00;;
15555;SDS011;7879;48.660;9.116;2023-06-01T11:29:02;0.00;;;0.00;;
15555;SDS011;7879;48.660;9.116;2023-06-01T11:31:40;0.00;;;0.00;;
15555;SDS011;7879;48.660;9.116;2023-06-01T11:34:37;0.00;;;0.00;;
15555;SDS011;7879;48.660;9.116;2023-06-01T11:37:17;0.00;;;0.00;;
15555;SDS011;7879;48.660;9.116;2023-06-01T11:39:45;0.00;;;0.00;;
15555;SDS011;7879;48.660;9.116;2023-06-01T11:42:16;0.00;;;0.00;;
15555;SDS011;7879;48.660;9.116;2023-06-01T11:44:45;0.00;;;0.00;;
15555;SDS011;7879;48.660;9.116;2023-06-01T11:47:22;0.00;;;0.00;;
15555;SDS011;7879;48.660;9.116;2023-06-01T11:49:49;0.00;;;0.00;;
15555;SDS011;7879;48.660;9.116;2023-06-01T11:52:17;0.00;;;0.00;;
15555;SDS011;7879;48.660;9.116;2023-06-01T11:54:45;0.00;;;0.00;;
15555;SDS011;7879;48.660;9.116;2023-06-01T11:57:12;0.00;;;0.00;;
15555;SDS011;7879;48.660;9.116;2023-06-01T12:02:20;0.00;;;0.00;;
15555;SDS011;7879;48.660;9.116;2023-06-01T12:04:53;0.00;;;0.00;;
15555;SDS011;7879;48.660;9.116;2023-06-01T12:07:21;0.00;;;0.00;;
15555;SDS011;7879;48.660;9.116;2023-06-01T12:09:48;0.00;;;0.00;;
15555;SDS011;7879;48.660;9.116;2023-06-01T12:12:17;0.00;;;0.00;;
15555;SDS011;7879;48.660;9.116;2023-06-01T12:14:44;0.00;;;0.00;;
15555;SDS011;7879;48.660;9.116;2023-06-01T12:17:11;0.00;;;0.00;;
15555;SDS011;7879;48.660;9.116;2023-06-01T12:19:46;0.00;;;0.00;;
15555;SDS011;7879;48.660;9.116;2023-06-01T12:22:16;0.00;;;0.00;;
15555;SDS011;7879;48.660;9.116;2023-06-01T12:24:44;0.00;;;0.00;;
15555;SDS011;7879;48.660;9.116;2023-06-01T12:27:15;0.00;;;0.00;;
15555;SDS011;7879;48.660;9.116;2023-06-01T12:29:45;0.00;;;0.00;;
15555;SDS011;7879;48.660;9.116;2023-06-01T12:32:14;0.00;;;0.00;;
15555;SDS011;7879;48.660;9.116;2023-06-01T12:34:50;0.00;;;0.00;;
15555;SDS011;7879;48.660;9.116;2023-06-01T12:37:30;0.00;;;0.00;;
15555;SDS011;7879;48.660;9.116;2023-06-01T12:39:57;0.00;;;0.00;;
15555;SDS011;7879;48.660;9.116;2023-06-01T12:42:39;0.00;;;0.00;;
15555;SDS011;7879;48.660;9.116;2023-06-01T12:45:07;0.00;;;0.00;;
15555;SDS011;7879;48.660;9.116;2023-06-01T12:47:35;0.00;;;0.00;;
15555;SDS011;7879;48.660;9.116;2023-06-01T12:50:12;0.00;;;0.00;;
15555;SDS011;7879;48.660;9.116;2023-06-01T12:52:40;0.00;;;0.00;;
15555;SDS011;7879;48.660;9.116;2023-06-01T12:55:11;0.00;;;0.00;;
15555;SDS011;7879;48.660;9.116;2023-06-01T12:57:38;0.00;;;0.00;;
15555;SDS011;7879;48.660;9.116;2023-06-01T13:00:05;0.00;;;0.00;;
15555;SDS011;7879;48.660;9.116;2023-06-01T13:02:33;0.00;;;0.00;;
15555;SDS011;7879;48.660;9.116;2023-06-01T13:05:02;0.00;;;0.00;;
15555;SDS011;7879;48.660;9.116;2023-06-01T13:07:31;0.00;;;0.00;;
15555;SDS011;7879;48.660;9.116;2023-06-01T13:09:58;0.00;;;0.00;;
15555;SDS011;7879;48.660;9.116;2023-06-01T13:12:27;0.00;;;0.00;;
15555;SDS011;7879;48.660;9.116;2023-06-01T13:14:55;0.00;;;0.00;;
15555;SDS011;7879;48.660;9.116;2023-06-01T13:17:23;0.00;;;0.00;;
15555;SDS011;7879;48.660;9.116;2023-06-01T13:19:51;0.00;;;0.00;;
15555;SDS011;7879;48.660;9.116;2023-06-01T13:22:18;0.00;;;0.00;;
15555;SDS011;7879;48.660;9.116;2023-06-01T13:24:45;0.00;;;0.00;;
15555;SDS011;7879;48.660;9.116;2023-06-01T13:27:29;0.00;;;0.00;;
15555;SDS011;7879;48.660;9.116;2023-06-01T13:29:56;0.00;;;0.00;;
15555;SDS011;7879;48.660;9.116;2023-06-01T13:32:23;0.00;;;0.00;;
15555;SDS011;7879;48.660;9.116;2023-06-01T13:34:50;0.00;;;0.00;;
15555;SDS011;7879;48.660;9.116;2023-06-01T13:37:17;0.00;;;0.00;;
15555;SDS011;7879;48.660;9.116;2023-06-01T13:39:45;0.00;;;0.00;;
15555;SDS011;7879;48.660;9.116;2023-06-01T13:42:12;0.00;;;0.00;;
15555;SDS011;7879;48.660;9.116;2023-06-01T13:44:39;0.00;;;0.00;;
15555;SDS011;7879;48.660;9.116;2023-06-01T13:47:08;0.00;;;0.00;;
15555;SDS011;7879;48.660;9.116;2023-06-01T13:49:35;0.00;;;0.00;;
15555;SDS011;7879;48.660;9.116;2023-06-01T13:52:02;0.00;;;0.00;;
15555;SDS011;7879;48.660;9.116;2023-06-01T13:54:29;0.00;;;0.00;;
15555;SDS011;7879;48.660;9.116;2023-06-01T13:56:56;0.00;;;0.00;;
15555;SDS011;7879;48.660;9.116;2023-06-01T13:59:23;0.00;;;0.00;;
15555;SDS011;7879;48.660;9.116;2023-06-01T14:01:50;0.00;;;0.00;;
15555;SDS011;7879;48.660;9.116;2023-06-01T14:04:17;0.00;;;0.00;;
15555;SDS011;7879;48.660;9.116;2023-06-01T14:06:44;0.00;;;0.00;;
15555;SDS011;7879;48.660;9.116;2023-06-01T14:09:11;0.00;;;0.00;;
15555;SDS011;7879;48.660;9.116;2023-06-01T14:11:38;0.00;;;0.00;;
15555;SDS011;7879;48.660;9.116;2023-06-01T14:14:05;0.00;;;0.00;;
15555;SDS011;7879;48.660;9.116;2023-06-01T14:16:32;0.00;;;0.00;;
15555;SDS011;7879;48.660;9.116;2023-06-01T14:18:59;0.00;;;0.00;;
15555;SDS011;7879;48.660;9.116;2023-06-01T14:21:26;0.00;;;0.00;;
15555;SDS011;7879;48.660;9.116;2023-06-01T14:23:55;0.00;;;0.00;;
15555;SDS011;7879;48.660;9.116;2023-06-01T14:26:21;0.00;;;0.00;;
15555;SDS011;7879;48.660;9.116;2023-06-01T14:28:48;0.00;;;0.00;;
15555;SDS011;7879;48.660;9.116;2023-06-01T14:31:15;0.00;;;0.00;;
15555;SDS011;7879;48.660;9.116;2023-06-01T14:33:42;0.00;;;0.00;;
15555;SDS011;7879;48.660;9.116;2023-06-01T14:36:09;0.00;;;0.00;;
15555;SDS011;7879;48.660;9.116;2023-06-01T14:38:36;0.00;;;0.00;;
15555;SDS011;7879;48.660;9.116;2023-06-01T14:41:03;0.00;;;0.00;;
15555;SDS011;7879;48.660;9.116;2023-06-01T14:43:30;0.00;;;0.00;;
15555;SDS011;7879;48.660;9.116;2023-06-01T14:45:57;0.00;;;0.00;;
15555;SDS011;7879;48.660;9.116;2023-06-01T14:48:24;0.00;;;0.00;;
15555;SDS011;7879;48.660;9.116;2023-06-01T14:50:51;0.00;;;0.00;;
15555;SDS011;7879;48.660;9.116;2023-06-01T14:53:18;0.00;;;0.00;;
15555;SDS011;7879;48.660;9.116;2023-06-01T14:55:45;0.00;;;0.00;;
15555;SDS011;7879;48.660;9.116;2023-06-01T14:58:12;0.00;;;0.00;;
15555;SDS011;7879;48.660;9.116;2023-06-01T15:00:39;0.00;;;0.00;;
15555;SDS011;7879;48.660;9.116;2023-06-01T15:03:06;0.00;;;0.00;;
15555;SDS011;7879;48.660;9.116;2023-06-01T15:05:34;0.00;;;0.00;;
15555;SDS011;7879;48.660;9.116;2023-06-01T15:08:01;0.00;;;0.00;;
15555;SDS011;7879;48.660;9.116;2023-06-01T15:10:31;0.00;;;0.00;;
15555;SDS011;7879;48.660;9.116;2023-06-01T15:12:58;0.00;;;0.00;;
15555;SDS011;7879;48.660;9.116;2023-06-01T15:15:24;0.00;;;0.00;;
15555;SDS011;7879;48.660;9.116;2023-06-01T15:17:53;0.00;;;0.00;;
15555;SDS011;7879;48.660;9.116;2023-06-01T15:20:21;0.00;;;0.00;;
15555;SDS011;7879;48.660;9.116;2023-06-01T15:22:48;0.00;;;0.00;;
15555;SDS011;7879;48.660;9.116;2023-06-01T15:25:15;0.00;;;0.00;;
15555;SDS011;7879;48.660;9.116;2023-06-01T15:27:41;0.00;;;0.00;;
15555;SDS011;7879;48.660;9.116;2023-06-01T15:30:08;0.00;;;0.00;;
15555;SDS011;7879;48.660;9.116;2023-06-01T15:32:36;0.00;;;0.00;;
15555;SDS011;7879;48.660;9.116;2023-06-01T15:35:03;0.00;;;0.00;;
15555;SDS011;7879;48.660;9.116;2023-06-01T15:37:31;0.00;;;0.00;;
15555;SDS011;7879;48.660;9.116;2023-06-01T15:39:58;0.00;;;0.00;;
15555;SDS011;7879;48.660;9.116;2023-06-01T15:42:24;0.00;;;0.00;;
15555;SDS011;7879;48.660;9.116;2023-06-01T15:44:51;0.00;;;0.00;;
15555;SDS011;7879;48.660;9.116;2023-06-01T15:47:18;0.00;;;0.00;;
15555;SDS011;7879;48.660;9.116;2023-06-01T15:49:45;0.00;;;0.00;;
15555;SDS011;7879;48.660;9.116;2023-06-01T15:52:12;0.00;;;0.00;;
15555;SDS011;7879;48.660;9.116;2023-06-01T15:54:38;0.00;;;0.00;;
15555;SDS011;7879;48.660;9.116;2023-06-01T15:57:05;0.00;;;0.00;;
15555;SDS011;7879;48.660;9.116;2023-06-01T15:59:34;0.00;;;0.00;;